sensor_id;sensor_type;location;lat;lon;timestamp;temperature;humidity
52543;DHT22;38449;52.696;6.186;2023-07-13T00:01:31;17.20;99.90
52543;DHT22;38449;52.696;6.186;2023-07-13T00:03:58;17.20;99.90
52543;DHT22;38449;52.696;6.186;2023-07-13T00:06:25;17.20;99.90
52543;DHT22;38449;52.696;6.186;2023-07-13T00:08:51;17.10;99.90
52543;DHT22;38449;52.696;6.186;2023-07-13T00:11:17;17.20;99.90
52543;DHT22;38449;52.696;6.186;2023-07-13T00:13:44;17.20;99.90
52543;DHT22;38449;52.696;6.186;2023-07-13T00:16:11;17.20;99.90
52543;DHT22;38449;52.696;6.186;2023-07-13T00:18:37;17.10;99.90
52543;DHT22;38449;52.696;6.186;2023-07-13T00:21:04;17.20;99.90
52543;DHT22;38449;52.696;6.186;2023-07-13T00:23:38;17.10;99.90
52543;DHT22;38449;52.696;6.186;2023-07-13T00:26:07;17.10;99.90
52543;DHT22;38449;52.696;6.186;2023-07-13T00:28:34;17.10;99.90
52543;DHT22;38449;52.696;6.186;2023-07-13T00:31:01;17.00;99.90
52543;DHT22;38449;52.696;6.186;2023-07-13T00:33:28;17.00;99.90
52543;DHT22;38449;52.696;6.186;2023-07-13T00:35:56;17.00;99.90
52543;DHT22;38449;52.696;6.186;2023-07-13T00:38:23;16.90;99.90
52543;DHT22;38449;52.696;6.186;2023-07-13T00:40:49;16.90;99.90
52543;DHT22;38449;52.696;6.186;2023-07-13T00:43:18;16.90;99.90
52543;DHT22;38449;52.696;6.186;2023-07-13T00:48:14;16.90;99.90
52543;DHT22;38449;52.696;6.186;2023-07-13T00:50:42;16.90;99.90
52543;DHT22;38449;52.696;6.186;2023-07-13T00:53:09;16.90;99.90
52543;DHT22;38449;52.696;6.186;2023-07-13T00:55:36;16.90;99.90
52543;DHT22;38449;52.696;6.186;2023-07-13T00:58:03;16.90;99.90
52543;DHT22;38449;52.696;6.186;2023-07-13T01:00:31;16.90;99.90
52543;DHT22;38449;52.696;6.186;2023-07-13T01:02:57;16.90;99.90
52543;DHT22;38449;52.696;6.186;2023-07-13T01:05:24;16.90;99.90
52543;DHT22;38449;52.696;6.186;2023-07-13T01:07:52;16.80;99.90
52543;DHT22;38449;52.696;6.186;2023-07-13T01:10:22;16.80;99.90
52543;DHT22;38449;52.696;6.186;2023-07-13T01:12:48;16.90;99.90
52543;DHT22;38449;52.696;6.186;2023-07-13T01:18:05;16.80;99.90
52543;DHT22;38449;52.696;6.186;2023-07-13T01:20:32;16.70;99.90
52543;DHT22;38449;52.696;6.186;2023-07-13T01:23:07;16.80;99.90
52543;DHT22;38449;52.696;6.186;2023-07-13T01:25:35;16.70;99.90
52543;DHT22;38449;52.696;6.186;2023-07-13T01:28:03;16.60;99.90
52543;DHT22;38449;52.696;6.186;2023-07-13T01:30:29;16.60;99.90
52543;DHT22;38449;52.696;6.186;2023-07-13T01:32:57;16.60;99.90
52543;DHT22;38449;52.696;6.186;2023-07-13T01:35:24;16.50;99.90
52543;DHT22;38449;52.696;6.186;2023-07-13T01:37:51;16.50;99.90
52543;DHT22;38449;52.696;6.186;2023-07-13T01:40:17;16.50;99.90
52543;DHT22;38449;52.696;6.186;2023-07-13T01:42:44;16.40;99.90
52543;DHT22;38449;52.696;6.186;2023-07-13T01:45:10;16.40;99.90
52543;DHT22;38449;52.696;6.186;2023-07-13T01:47:36;16.30;99.90
52543;DHT22;38449;52.696;6.186;2023-07-13T01:50:03;16.30;99.90
52543;DHT22;38449;52.696;6.186;2023-07-13T01:52:29;16.30;99.90
52543;DHT22;38449;52.696;6.186;2023-07-13T01:54:56;16.30;99.90
52543;DHT22;38449;52.696;6.186;2023-07-13T01:57:22;16.20;99.90
52543;DHT22;38449;52.696;6.186;2023-07-13T01:59:48;16.20;99.90
52543;DHT22;38449;52.696;6.186;2023-07-13T02:02:14;16.10;99.90
52543;DHT22;38449;52.696;6.186;2023-07-13T02:04:41;16.20;99.90
52543;DHT22;38449;52.696;6.186;2023-07-13T02:07:08;16.10;99.90
52543;DHT22;38449;52.696;6.186;2023-07-13T02:09:34;16.10;99.90
52543;DHT22;38449;52.696;6.186;2023-07-13T02:12:01;16.10;99.90
52543;DHT22;38449;52.696;6.186;2023-07-13T02:14:27;16.00;99.90
52543;DHT22;38449;52.696;6.186;2023-07-13T02:16:53;16.00;99.90
52543;DHT22;38449;52.696;6.186;2023-07-13T02:19:20;16.00;99.90
52543;DHT22;38449;52.696;6.186;2023-07-13T02:21:46;16.00;99.90
52543;DHT22;38449;52.696;6.186;2023-07-13T02:24:12;15.90;99.90
52543;DHT22;38449;52.696;6.186;2023-07-13T02:26:44;16.00;99.90
52543;DHT22;38449;52.696;6.186;2023-07-13T02:29:10;15.90;99.90
52543;DHT22;38449;52.696;6.186;2023-07-13T02:31:37;15.90;99.90
52543;DHT22;38449;52.696;6.186;2023-07-13T02:34:03;15.90;99.90
52543;DHT22;38449;52.696;6.186;2023-07-13T02:36:30;15.90;99.90
52543;DHT22;38449;52.696;6.186;2023-07-13T02:39:00;15.80;99.90
52543;DHT22;38449;52.696;6.186;2023-07-13T02:41:27;15.80;99.90
52543;DHT22;38449;52.696;6.186;2023-07-13T02:43:54;15.80;99.90
52543;DHT22;38449;52.696;6.186;2023-07-13T02:46:30;15.80;99.90
52543;DHT22;38449;52.696;6.186;2023-07-13T02:48:56;15.80;99.90
52543;DHT22;38449;52.696;6.186;2023-07-13T02:51:22;15.70;99.90
52543;DHT22;38449;52.696;6.186;2023-07-13T02:53:48;15.70;99.90
52543;DHT22;38449;52.696;6.186;2023-07-13T02:56:15;15.80;99.90
52543;DHT22;38449;52.696;6.186;2023-07-13T02:58:41;15.80;99.90
52543;DHT22;38449;52.696;6.186;2023-07-13T03:01:09;15.90;99.90
52543;DHT22;38449;52.696;6.186;2023-07-13T03:03:36;15.80;99.90
52543;DHT22;38449;52.696;6.186;2023-07-13T03:06:04;15.80;99.90
52543;DHT22;38449;52.696;6.186;2023-07-13T03:08:31;15.90;99.90
52543;DHT22;38449;52.696;6.186;2023-07-13T03:11:07;15.90;99.90
52543;DHT22;38449;52.696;6.186;2023-07-13T03:13:34;16.00;99.90
52543;DHT22;38449;52.696;6.186;2023-07-13T03:16:00;15.90;99.90
52543;DHT22;38449;52.696;6.186;2023-07-13T03:18:28;16.00;99.90
52543;DHT22;38449;52.696;6.186;2023-07-13T03:20:54;16.00;99.90
52543;DHT22;38449;52.696;6.186;2023-07-13T03:23:21;16.00;99.90
52543;DHT22;38449;52.696;6.186;2023-07-13T03:25:48;16.00;99.90
52543;DHT22;38449;52.696;6.186;2023-07-13T03:28:15;16.00;99.90
52543;DHT22;38449;52.696;6.186;2023-07-13T03:30:42;16.00;99.90
52543;DHT22;38449;52.696;6.186;2023-07-13T03:33:08;16.00;99.90
52543;DHT22;38449;52.696;6.186;2023-07-13T03:35:35;16.00;99.90
52543;DHT22;38449;52.696;6.186;2023-07-13T03:38:01;16.00;99.90
52543;DHT22;38449;52.696;6.186;2023-07-13T03:40:28;15.90;99.90
52543;DHT22;38449;52.696;6.186;2023-07-13T03:42:54;15.90;99.90
52543;DHT22;38449;52.696;6.186;2023-07-13T03:45:20;15.80;99.90
52543;DHT22;38449;52.696;6.186;2023-07-13T03:47:46;15.80;99.90
52543;DHT22;38449;52.696;6.186;2023-07-13T03:50:13;15.70;99.90
52543;DHT22;38449;52.696;6.186;2023-07-13T03:52:39;15.70;99.90
52543;DHT22;38449;52.696;6.186;2023-07-13T03:55:05;15.70;99.90
52543;DHT22;38449;52.696;6.186;2023-07-13T03:57:32;15.70;99.90
52543;DHT22;38449;52.696;6.186;2023-07-13T03:59:58;15.70;99.90
52543;DHT22;38449;52.696;6.186;2023-07-13T04:02:25;15.80;99.90
52543;DHT22;38449;52.696;6.186;2023-07-13T04:04:51;15.70;99.90
52543;DHT22;38449;52.696;6.186;2023-07-13T04:07:18;15.70;99.90
52543;DHT22;38449;52.696;6.186;2023-07-13T04:09:45;15.70;99.90
52543;DHT22;38449;52.696;6.186;2023-07-13T04:12:11;15.70;99.90
52543;DHT22;38449;52.696;6.186;2023-07-13T04:14:37;15.70;99.90
52543;DHT22;38449;52.696;6.186;2023-07-13T04:17:04;15.70;99.90
52543;DHT22;38449;52.696;6.186;2023-07-13T04:19:30;15.70;99.90
52543;DHT22;38449;52.696;6.186;2023-07-13T04:21:56;15.70;99.90
52543;DHT22;38449;52.696;6.186;2023-07-13T04:24:22;15.70;99.90
52543;DHT22;38449;52.696;6.186;2023-07-13T04:26:49;15.80;99.90
52543;DHT22;38449;52.696;6.186;2023-07-13T04:29:15;15.80;99.90
52543;DHT22;38449;52.696;6.186;2023-07-13T04:31:42;15.80;99.90
52543;DHT22;38449;52.696;6.186;2023-07-13T04:34:08;15.80;99.90
52543;DHT22;38449;52.696;6.186;2023-07-13T04:36:34;15.80;99.90
52543;DHT22;38449;52.696;6.186;2023-07-13T04:39:03;15.80;99.90
52543;DHT22;38449;52.696;6.186;2023-07-13T04:41:29;15.80;99.90
52543;DHT22;38449;52.696;6.186;2023-07-13T04:43:56;15.90;99.90
52543;DHT22;38449;52.696;6.186;2023-07-13T04:46:22;15.90;99.90
52543;DHT22;38449;52.696;6.186;2023-07-13T04:48:49;15.90;99.90
52543;DHT22;38449;52.696;6.186;2023-07-13T04:51:17;16.10;99.90
52543;DHT22;38449;52.696;6.186;2023-07-13T04:53:43;16.10;99.90
52543;DHT22;38449;52.696;6.186;2023-07-13T04:56:09;16.10;99.90
52543;DHT22;38449;52.696;6.186;2023-07-13T04:58:35;16.20;99.90
52543;DHT22;38449;52.696;6.186;2023-07-13T05:01:03;16.70;99.90
52543;DHT22;38449;52.696;6.186;2023-07-13T05:03:30;17.30;99.90
52543;DHT22;38449;52.696;6.186;2023-07-13T05:05:58;18.10;99.90
52543;DHT22;38449;52.696;6.186;2023-07-13T05:08:25;18.60;99.90
52543;DHT22;38449;52.696;6.186;2023-07-13T05:10:52;19.20;99.90
52543;DHT22;38449;52.696;6.186;2023-07-13T05:13:19;19.60;99.90
52543;DHT22;38449;52.696;6.186;2023-07-13T05:15:47;20.00;99.90
52543;DHT22;38449;52.696;6.186;2023-07-13T05:18:13;20.30;99.90
52543;DHT22;38449;52.696;6.186;2023-07-13T05:20:39;20.70;99.90
52543;DHT22;38449;52.696;6.186;2023-07-13T05:23:06;21.00;99.90
52543;DHT22;38449;52.696;6.186;2023-07-13T05:25:32;21.30;99.90
52543;DHT22;38449;52.696;6.186;2023-07-13T05:27:58;21.70;99.90
52543;DHT22;38449;52.696;6.186;2023-07-13T05:30:24;22.10;99.90
52543;DHT22;38449;52.696;6.186;2023-07-13T05:32:51;22.30;99.90
52543;DHT22;38449;52.696;6.186;2023-07-13T05:35:17;22.40;99.90
52543;DHT22;38449;52.696;6.186;2023-07-13T05:37:43;22.60;99.90
52543;DHT22;38449;52.696;6.186;2023-07-13T05:40:09;22.80;99.90
52543;DHT22;38449;52.696;6.186;2023-07-13T05:42:36;22.80;99.90
52543;DHT22;38449;52.696;6.186;2023-07-13T05:45:02;23.00;99.90
52543;DHT22;38449;52.696;6.186;2023-07-13T05:47:29;23.30;99.90
52543;DHT22;38449;52.696;6.186;2023-07-13T05:49:55;23.40;99.90
52543;DHT22;38449;52.696;6.186;2023-07-13T05:52:21;23.50;99.90
52543;DHT22;38449;52.696;6.186;2023-07-13T05:54:47;23.70;99.90
52543;DHT22;38449;52.696;6.186;2023-07-13T05:57:14;23.60;99.90
52543;DHT22;38449;52.696;6.186;2023-07-13T05:59:40;23.30;99.90
52543;DHT22;38449;52.696;6.186;2023-07-13T06:02:09;22.50;99.90
52543;DHT22;38449;52.696;6.186;2023-07-13T06:04:35;22.00;99.90
52543;DHT22;38449;52.696;6.186;2023-07-13T06:07:01;21.70;99.90
52543;DHT22;38449;52.696;6.186;2023-07-13T06:09:28;21.70;99.90
52543;DHT22;38449;52.696;6.186;2023-07-13T06:11:54;21.60;99.90
52543;DHT22;38449;52.696;6.186;2023-07-13T06:14:20;21.60;99.90
52543;DHT22;38449;52.696;6.186;2023-07-13T06:16:46;21.50;99.90
52543;DHT22;38449;52.696;6.186;2023-07-13T06:19:12;21.50;99.90
52543;DHT22;38449;52.696;6.186;2023-07-13T06:21:48;21.30;99.90
52543;DHT22;38449;52.696;6.186;2023-07-13T06:24:14;21.40;99.90
52543;DHT22;38449;52.696;6.186;2023-07-13T06:26:41;21.10;99.90
52543;DHT22;38449;52.696;6.186;2023-07-13T06:29:07;20.80;99.90
52543;DHT22;38449;52.696;6.186;2023-07-13T06:31:33;20.50;99.90
52543;DHT22;38449;52.696;6.186;2023-07-13T06:33:59;20.50;99.90
52543;DHT22;38449;52.696;6.186;2023-07-13T06:36:26;20.40;99.90
52543;DHT22;38449;52.696;6.186;2023-07-13T06:38:52;20.30;99.90
52543;DHT22;38449;52.696;6.186;2023-07-13T06:41:18;20.20;99.90
52543;DHT22;38449;52.696;6.186;2023-07-13T06:43:44;20.20;99.90
52543;DHT22;38449;52.696;6.186;2023-07-13T06:46:11;20.00;99.90
52543;DHT22;38449;52.696;6.186;2023-07-13T06:48:37;19.80;99.90
52543;DHT22;38449;52.696;6.186;2023-07-13T06:51:03;19.60;99.90
52543;DHT22;38449;52.696;6.186;2023-07-13T06:53:30;19.50;99.90
52543;DHT22;38449;52.696;6.186;2023-07-13T06:55:56;19.40;99.90
52543;DHT22;38449;52.696;6.186;2023-07-13T06:58:23;19.40;99.90
52543;DHT22;38449;52.696;6.186;2023-07-13T07:00:51;19.30;99.90
52543;DHT22;38449;52.696;6.186;2023-07-13T07:03:18;19.40;99.90
52543;DHT22;38449;52.696;6.186;2023-07-13T07:05:44;19.30;99.90
52543;DHT22;38449;52.696;6.186;2023-07-13T07:08:10;19.30;99.90
52543;DHT22;38449;52.696;6.186;2023-07-13T07:10:36;19.30;99.90
52543;DHT22;38449;52.696;6.186;2023-07-13T07:13:03;19.30;99.90
52543;DHT22;38449;52.696;6.186;2023-07-13T07:15:30;19.30;99.90
52543;DHT22;38449;52.696;6.186;2023-07-13T07:17:57;19.30;99.90
52543;DHT22;38449;52.696;6.186;2023-07-13T07:20:23;19.40;99.90
52543;DHT22;38449;52.696;6.186;2023-07-13T07:22:50;19.50;99.90
52543;DHT22;38449;52.696;6.186;2023-07-13T07:25:16;19.40;99.90
52543;DHT22;38449;52.696;6.186;2023-07-13T07:27:42;19.50;99.90
52543;DHT22;38449;52.696;6.186;2023-07-13T07:30:09;19.70;99.90
52543;DHT22;38449;52.696;6.186;2023-07-13T07:32:35;19.80;99.90
52543;DHT22;38449;52.696;6.186;2023-07-13T07:35:01;20.00;99.90
52543;DHT22;38449;52.696;6.186;2023-07-13T07:37:28;20.10;99.90
52543;DHT22;38449;52.696;6.186;2023-07-13T07:39:54;20.10;99.90
52543;DHT22;38449;52.696;6.186;2023-07-13T07:42:20;20.20;99.90
52543;DHT22;38449;52.696;6.186;2023-07-13T07:44:47;20.30;99.90
52543;DHT22;38449;52.696;6.186;2023-07-13T07:47:13;20.40;99.90
52543;DHT22;38449;52.696;6.186;2023-07-13T07:49:39;20.60;99.90
52543;DHT22;38449;52.696;6.186;2023-07-13T07:52:06;20.60;99.90
52543;DHT22;38449;52.696;6.186;2023-07-13T07:54:32;21.00;99.90
52543;DHT22;38449;52.696;6.186;2023-07-13T07:56:59;21.40;99.90
52543;DHT22;38449;52.696;6.186;2023-07-13T07:59:25;21.30;99.90
52543;DHT22;38449;52.696;6.186;2023-07-13T08:01:51;21.30;99.90
52543;DHT22;38449;52.696;6.186;2023-07-13T08:04:18;21.30;99.90
52543;DHT22;38449;52.696;6.186;2023-07-13T08:06:44;21.00;99.90
52543;DHT22;38449;52.696;6.186;2023-07-13T08:09:10;20.90;99.90
52543;DHT22;38449;52.696;6.186;2023-07-13T08:11:36;20.80;99.90
52543;DHT22;38449;52.696;6.186;2023-07-13T08:14:03;20.70;99.90
52543;DHT22;38449;52.696;6.186;2023-07-13T08:16:29;20.60;99.90
52543;DHT22;38449;52.696;6.186;2023-07-13T08:18:55;20.60;99.90
52543;DHT22;38449;52.696;6.186;2023-07-13T08:21:22;20.50;99.90
52543;DHT22;38449;52.696;6.186;2023-07-13T08:23:48;20.50;99.90
52543;DHT22;38449;52.696;6.186;2023-07-13T08:26:15;20.50;99.90
52543;DHT22;38449;52.696;6.186;2023-07-13T08:28:41;20.40;99.90
52543;DHT22;38449;52.696;6.186;2023-07-13T08:31:07;20.40;99.90
52543;DHT22;38449;52.696;6.186;2023-07-13T08:33:35;20.30;99.90
52543;DHT22;38449;52.696;6.186;2023-07-13T08:36:02;20.30;99.90
52543;DHT22;38449;52.696;6.186;2023-07-13T08:38:28;19.90;99.90
52543;DHT22;38449;52.696;6.186;2023-07-13T08:40:56;18.20;99.90
52543;DHT22;38449;52.696;6.186;2023-07-13T08:43:28;17.40;99.90
52543;DHT22;38449;52.696;6.186;2023-07-13T08:46:09;16.60;99.90
52543;DHT22;38449;52.696;6.186;2023-07-13T08:48:43;16.00;99.90
52543;DHT22;38449;52.696;6.186;2023-07-13T08:54:03;15.60;99.90
52543;DHT22;38449;52.696;6.186;2023-07-13T08:56:35;15.50;99.90
52543;DHT22;38449;52.696;6.186;2023-07-13T08:59:14;15.40;99.90
52543;DHT22;38449;52.696;6.186;2023-07-13T09:05:30;15.50;99.90
52543;DHT22;38449;52.696;6.186;2023-07-13T09:10:32;15.40;99.90
52543;DHT22;38449;52.696;6.186;2023-07-13T09:13:54;15.50;99.90
52543;DHT22;38449;52.696;6.186;2023-07-13T09:15:59;15.60;99.90
52543;DHT22;38449;52.696;6.186;2023-07-13T09:18:33;15.60;99.90
52543;DHT22;38449;52.696;6.186;2023-07-13T09:21:04;15.70;99.90
52543;DHT22;38449;52.696;6.186;2023-07-13T09:23:35;15.80;99.90
52543;DHT22;38449;52.696;6.186;2023-07-13T09:26:14;16.00;99.90
52543;DHT22;38449;52.696;6.186;2023-07-13T09:28:44;16.30;99.90
52543;DHT22;38449;52.696;6.186;2023-07-13T09:31:15;16.40;99.90
52543;DHT22;38449;52.696;6.186;2023-07-13T09:33:42;16.60;99.90
52543;DHT22;38449;52.696;6.186;2023-07-13T09:36:24;16.60;99.90
52543;DHT22;38449;52.696;6.186;2023-07-13T09:39:14;16.90;99.90
52543;DHT22;38449;52.696;6.186;2023-07-13T09:44:39;17.20;99.90
52543;DHT22;38449;52.696;6.186;2023-07-13T09:47:23;17.30;99.90
52543;DHT22;38449;52.696;6.186;2023-07-13T09:50:15;17.30;99.90
52543;DHT22;38449;52.696;6.186;2023-07-13T09:52:47;17.60;99.90
52543;DHT22;38449;52.696;6.186;2023-07-13T09:55:34;17.90;99.90
52543;DHT22;38449;52.696;6.186;2023-07-13T09:58:14;18.10;99.90
52543;DHT22;38449;52.696;6.186;2023-07-13T10:00:42;18.50;99.90
52543;DHT22;38449;52.696;6.186;2023-07-13T10:03:19;18.80;99.90
52543;DHT22;38449;52.696;6.186;2023-07-13T10:05:48;19.30;99.90
52543;DHT22;38449;52.696;6.186;2023-07-13T10:10:45;19.40;99.90
52543;DHT22;38449;52.696;6.186;2023-07-13T10:13:31;19.40;99.90
52543;DHT22;38449;52.696;6.186;2023-07-13T10:15:59;19.70;99.90
52543;DHT22;38449;52.696;6.186;2023-07-13T10:18:26;19.90;99.90
52543;DHT22;38449;52.696;6.186;2023-07-13T10:21:00;20.00;99.90
52543;DHT22;38449;52.696;6.186;2023-07-13T10:23:35;19.90;99.90
52543;DHT22;38449;52.696;6.186;2023-07-13T10:26:01;19.80;99.90
52543;DHT22;38449;52.696;6.186;2023-07-13T10:28:36;19.70;99.90
52543;DHT22;38449;52.696;6.186;2023-07-13T10:31:10;19.60;99.90
52543;DHT22;38449;52.696;6.186;2023-07-13T10:33:38;19.40;99.90
52543;DHT22;38449;52.696;6.186;2023-07-13T10:36:22;19.40;99.90
52543;DHT22;38449;52.696;6.186;2023-07-13T10:38:50;19.30;99.90
52543;DHT22;38449;52.696;6.186;2023-07-13T10:41:20;19.30;99.90
52543;DHT22;38449;52.696;6.186;2023-07-13T10:43:55;19.20;99.90
52543;DHT22;38449;52.696;6.186;2023-07-13T10:46:25;19.10;99.90
52543;DHT22;38449;52.696;6.186;2023-07-13T10:49:05;19.10;99.90
52543;DHT22;38449;52.696;6.186;2023-07-13T10:51:33;19.20;99.90
52543;DHT22;38449;52.696;6.186;2023-07-13T10:54:20;19.10;99.90
52543;DHT22;38449;52.696;6.186;2023-07-13T10:57:06;19.10;99.90
52543;DHT22;38449;52.696;6.186;2023-07-13T10:59:34;19.20;99.90
52543;DHT22;38449;52.696;6.186;2023-07-13T11:04:44;19.40;99.90
52543;DHT22;38449;52.696;6.186;2023-07-13T11:10:30;19.90;99.90
52543;DHT22;38449;52.696;6.186;2023-07-13T11:12:57;20.20;99.90
52543;DHT22;38449;52.696;6.186;2023-07-13T11:15:32;20.40;99.90
52543;DHT22;38449;52.696;6.186;2023-07-13T11:18:03;20.60;99.90
52543;DHT22;38449;52.696;6.186;2023-07-13T11:20:39;20.60;99.90
52543;DHT22;38449;52.696;6.186;2023-07-13T11:23:26;20.70;99.90
52543;DHT22;38449;52.696;6.186;2023-07-13T11:25:53;20.80;99.90
52543;DHT22;38449;52.696;6.186;2023-07-13T11:28:23;20.80;99.90
52543;DHT22;38449;52.696;6.186;2023-07-13T11:36:19;21.40;99.90
52543;DHT22;38449;52.696;6.186;2023-07-13T11:41:42;21.80;99.90
52543;DHT22;38449;52.696;6.186;2023-07-13T11:44:13;21.90;99.90
52543;DHT22;38449;52.696;6.186;2023-07-13T11:46:48;21.90;99.90
52543;DHT22;38449;52.696;6.186;2023-07-13T11:49:42;21.90;99.90
52543;DHT22;38449;52.696;6.186;2023-07-13T11:52:16;21.90;99.90
52543;DHT22;38449;52.696;6.186;2023-07-13T11:54:54;21.90;99.90
52543;DHT22;38449;52.696;6.186;2023-07-13T11:57:33;21.80;99.90
52543;DHT22;38449;52.696;6.186;2023-07-13T12:00:11;22.00;99.90
52543;DHT22;38449;52.696;6.186;2023-07-13T12:02:42;22.00;99.90
52543;DHT22;38449;52.696;6.186;2023-07-13T12:05:14;22.30;99.90
52543;DHT22;38449;52.696;6.186;2023-07-13T12:07:41;22.20;99.90
52543;DHT22;38449;52.696;6.186;2023-07-13T12:12:55;22.10;99.90
52543;DHT22;38449;52.696;6.186;2023-07-13T12:15:23;22.20;99.90
52543;DHT22;38449;52.696;6.186;2023-07-13T12:17:50;22.40;99.90
52543;DHT22;38449;52.696;6.186;2023-07-13T12:20:27;22.30;99.90
52543;DHT22;38449;52.696;6.186;2023-07-13T12:22:56;22.20;99.90
52543;DHT22;38449;52.696;6.186;2023-07-13T12:25:23;22.40;99.90
52543;DHT22;38449;52.696;6.186;2023-07-13T12:27:50;22.40;99.90
52543;DHT22;38449;52.696;6.186;2023-07-13T12:30:29;22.40;99.90
52543;DHT22;38449;52.696;6.186;2023-07-13T12:35:26;22.30;99.30
52543;DHT22;38449;52.696;6.186;2023-07-13T12:37:57;22.40;99.90
52543;DHT22;38449;52.696;6.186;2023-07-13T12:40:33;22.50;99.90
52543;DHT22;38449;52.696;6.186;2023-07-13T12:43:01;22.50;99.90
52543;DHT22;38449;52.696;6.186;2023-07-13T12:45:30;22.70;99.90
52543;DHT22;38449;52.696;6.186;2023-07-13T12:48:06;22.70;99.90
52543;DHT22;38449;52.696;6.186;2023-07-13T12:50:43;22.80;99.90
52543;DHT22;38449;52.696;6.186;2023-07-13T12:53:19;22.60;99.90
52543;DHT22;38449;52.696;6.186;2023-07-13T12:55:50;22.80;99.90
52543;DHT22;38449;52.696;6.186;2023-07-13T12:58:26;22.80;99.90
52543;DHT22;38449;52.696;6.186;2023-07-13T13:00:58;23.00;99.90
52543;DHT22;38449;52.696;6.186;2023-07-13T13:03:31;23.10;99.90
52543;DHT22;38449;52.696;6.186;2023-07-13T13:06:03;23.10;99.90
52543;DHT22;38449;52.696;6.186;2023-07-13T13:08:35;23.10;99.90
52543;DHT22;38449;52.696;6.186;2023-07-13T13:11:02;22.80;99.80
52543;DHT22;38449;52.696;6.186;2023-07-13T13:13:28;22.90;99.90
52543;DHT22;38449;52.696;6.186;2023-07-13T13:15:55;23.00;99.90
52543;DHT22;38449;52.696;6.186;2023-07-13T13:18:23;23.10;99.90
52543;DHT22;38449;52.696;6.186;2023-07-13T13:20:50;23.00;99.90
52543;DHT22;38449;52.696;6.186;2023-07-13T13:23:19;22.70;99.60
52543;DHT22;38449;52.696;6.186;2023-07-13T13:25:46;22.50;99.90
52543;DHT22;38449;52.696;6.186;2023-07-13T13:28:18;22.60;99.90
52543;DHT22;38449;52.696;6.186;2023-07-13T13:30:50;22.60;99.20
52543;DHT22;38449;52.696;6.186;2023-07-13T13:33:17;22.70;99.90
52543;DHT22;38449;52.696;6.186;2023-07-13T13:35:44;22.70;99.50
52543;DHT22;38449;52.696;6.186;2023-07-13T13:38:16;22.80;99.90
52543;DHT22;38449;52.696;6.186;2023-07-13T13:40:44;22.60;99.90
52543;DHT22;38449;52.696;6.186;2023-07-13T13:43:32;22.50;99.90
52543;DHT22;38449;52.696;6.186;2023-07-13T13:45:59;22.60;99.30
52543;DHT22;38449;52.696;6.186;2023-07-13T13:48:33;22.70;99.90
52543;DHT22;38449;52.696;6.186;2023-07-13T13:51:01;22.90;99.90
52543;DHT22;38449;52.696;6.186;2023-07-13T13:53:32;23.00;99.90
52543;DHT22;38449;52.696;6.186;2023-07-13T13:55:59;23.00;99.90
52543;DHT22;38449;52.696;6.186;2023-07-13T13:58:26;22.90;99.30
52543;DHT22;38449;52.696;6.186;2023-07-13T14:00:52;23.10;99.90
52543;DHT22;38449;52.696;6.186;2023-07-13T14:03:20;23.10;99.40
52543;DHT22;38449;52.696;6.186;2023-07-13T14:05:48;23.30;99.90
52543;DHT22;38449;52.696;6.186;2023-07-13T14:08:18;23.30;99.90
52543;DHT22;38449;52.696;6.186;2023-07-13T14:10:46;23.30;99.60
52543;DHT22;38449;52.696;6.186;2023-07-13T14:13:20;23.40;99.70
52543;DHT22;38449;52.696;6.186;2023-07-13T14:15:47;23.20;98.80
52543;DHT22;38449;52.696;6.186;2023-07-13T14:18:14;23.10;99.50
52543;DHT22;38449;52.696;6.186;2023-07-13T14:20:48;22.90;99.90
52543;DHT22;38449;52.696;6.186;2023-07-13T14:23:15;22.90;99.90
52543;DHT22;38449;52.696;6.186;2023-07-13T14:25:46;23.00;99.60
52543;DHT22;38449;52.696;6.186;2023-07-13T14:28:32;23.20;99.70
52543;DHT22;38449;52.696;6.186;2023-07-13T14:30:58;23.30;99.30
52543;DHT22;38449;52.696;6.186;2023-07-13T14:33:24;23.20;99.20
52543;DHT22;38449;52.696;6.186;2023-07-13T14:35:51;23.30;99.20
52543;DHT22;38449;52.696;6.186;2023-07-13T14:38:19;23.20;99.40
52543;DHT22;38449;52.696;6.186;2023-07-13T14:40:46;23.00;99.60
52543;DHT22;38449;52.696;6.186;2023-07-13T14:43:13;22.80;99.90
52543;DHT22;38449;52.696;6.186;2023-07-13T14:45:43;22.60;99.90
52543;DHT22;38449;52.696;6.186;2023-07-13T14:48:20;22.70;99.90
52543;DHT22;38449;52.696;6.186;2023-07-13T14:50:54;22.70;99.90
52543;DHT22;38449;52.696;6.186;2023-07-13T14:53:22;22.60;99.90
52543;DHT22;38449;52.696;6.186;2023-07-13T14:55:49;22.60;99.90
52543;DHT22;38449;52.696;6.186;2023-07-13T14:58:15;22.60;99.90
52543;DHT22;38449;52.696;6.186;2023-07-13T15:00:41;22.50;99.90
52543;DHT22;38449;52.696;6.186;2023-07-13T15:03:18;22.40;99.90
52543;DHT22;38449;52.696;6.186;2023-07-13T15:05:45;22.40;99.90
52543;DHT22;38449;52.696;6.186;2023-07-13T15:08:11;22.30;99.90
52543;DHT22;38449;52.696;6.186;2023-07-13T15:10:38;22.50;99.90
52543;DHT22;38449;52.696;6.186;2023-07-13T15:13:17;22.60;99.90
52543;DHT22;38449;52.696;6.186;2023-07-13T15:15:46;22.40;99.90
52543;DHT22;38449;52.696;6.186;2023-07-13T15:18:15;22.40;99.90
52543;DHT22;38449;52.696;6.186;2023-07-13T15:20:44;22.50;99.90
52543;DHT22;38449;52.696;6.186;2023-07-13T15:23:12;22.60;99.90
52543;DHT22;38449;52.696;6.186;2023-07-13T15:25:38;22.60;99.90
52543;DHT22;38449;52.696;6.186;2023-07-13T15:28:05;22.50;99.90
52543;DHT22;38449;52.696;6.186;2023-07-13T15:30:44;22.60;99.90
52543;DHT22;38449;52.696;6.186;2023-07-13T15:33:15;22.60;99.90
52543;DHT22;38449;52.696;6.186;2023-07-13T15:35:45;22.90;99.90
52543;DHT22;38449;52.696;6.186;2023-07-13T15:38:17;22.90;99.90
52543;DHT22;38449;52.696;6.186;2023-07-13T15:40:44;23.00;99.90
52543;DHT22;38449;52.696;6.186;2023-07-13T15:43:12;23.00;99.90
52543;DHT22;38449;52.696;6.186;2023-07-13T15:45:39;23.20;99.90
52543;DHT22;38449;52.696;6.186;2023-07-13T15:48:23;23.30;99.90
52543;DHT22;38449;52.696;6.186;2023-07-13T15:50:54;23.30;99.90
52543;DHT22;38449;52.696;6.186;2023-07-13T15:53:34;23.30;99.90
52543;DHT22;38449;52.696;6.186;2023-07-13T15:56:23;23.30;99.40
52543;DHT22;38449;52.696;6.186;2023-07-13T15:58:51;23.10;99.70
52543;DHT22;38449;52.696;6.186;2023-07-13T16:01:18;23.10;99.90
52543;DHT22;38449;52.696;6.186;2023-07-13T16:03:46;23.00;99.90
52543;DHT22;38449;52.696;6.186;2023-07-13T16:06:19;23.00;99.90
52543;DHT22;38449;52.696;6.186;2023-07-13T16:08:49;23.00;99.50
52543;DHT22;38449;52.696;6.186;2023-07-13T16:11:23;22.90;99.40
52543;DHT22;38449;52.696;6.186;2023-07-13T16:13:54;22.90;99.70
52543;DHT22;38449;52.696;6.186;2023-07-13T16:16:27;22.90;99.90
52543;DHT22;38449;52.696;6.186;2023-07-13T16:18:56;22.90;99.90
52543;DHT22;38449;52.696;6.186;2023-07-13T16:21:24;23.00;99.50